ICE9737 EINN-BIKF
Flight info
| Callsign | ICE9737 |
|---|---|
| Flight time | N/A |
| Altitude | 34000 |
| Route | ERABI3B ERABI DCT OSBOX DCT AGORI/M080F340 DCT 61N017W DCT BREKI DCT BASLU BASLU4N |
| Aircraft | B738/M-SDE2E3FGHIRWXY/LB1 |
Departure
| Time | 2026-05-07 19:35 |
|---|---|
| Airport | Shannon Airport (EINN) |
Arrival
| Time | N/A |
|---|---|
| Airport | Keflavik International Airport (BIKF) |
| Time | Latitude | Longitude | Altitude | Speed | Heading |
|---|---|---|---|---|---|
| 2026-05-07 19:12 | 52.69310 | -8.91830 | 21 ft | 0 kts | 221° |
| 2026-05-07 19:27 | 52.69313 | -8.91826 | 22 ft | 2 kts | 221° |
| 2026-05-07 19:27 | 52.69325 | -8.91809 | 24 ft | 2 kts | 221° |
| 2026-05-07 19:27 | 52.69338 | -8.91791 | 21 ft | 2 kts | 220° |
| 2026-05-07 19:28 | 52.69350 | -8.91774 | 24 ft | 2 kts | 219° |
| 2026-05-07 19:28 | 52.69363 | -8.91757 | 21 ft | 2 kts | 206° |
| 2026-05-07 19:28 | 52.69379 | -8.91752 | 23 ft | 2 kts | 167° |
| 2026-05-07 19:28 | 52.69386 | -8.91755 | 22 ft | 0 kts | 159° |
| 2026-05-07 19:30 | 52.69385 | -8.91754 | 22 ft | 1 kts | 159° |
| 2026-05-07 19:30 | 52.69359 | -8.91742 | 21 ft | 8 kts | 164° |
| 2026-05-07 19:30 | 52.69303 | -8.91678 | 21 ft | 12 kts | 131° |
| 2026-05-07 19:30 | 52.69265 | -8.91543 | 21 ft | 15 kts | 66° |
| 2026-05-07 19:31 | 52.69360 | -8.91471 | 21 ft | 16 kts | 18° |
| 2026-05-07 19:31 | 52.69463 | -8.91416 | 21 ft | 16 kts | 18° |
| 2026-05-07 19:31 | 52.69569 | -8.91356 | 21 ft | 16 kts | 19° |
| 2026-05-07 19:31 | 52.69678 | -8.91294 | 23 ft | 17 kts | 19° |
| 2026-05-07 19:32 | 52.69792 | -8.91232 | 24 ft | 17 kts | 17° |
| 2026-05-07 19:32 | 52.69909 | -8.91167 | 21 ft | 18 kts | 19° |
| 2026-05-07 19:32 | 52.70024 | -8.91102 | 23 ft | 17 kts | 18° |
| 2026-05-07 19:32 | 52.70133 | -8.91042 | 21 ft | 16 kts | 19° |
| 2026-05-07 19:33 | 52.70235 | -8.90986 | 24 ft | 15 kts | 18° |
| 2026-05-07 19:33 | 52.70338 | -8.90930 | 23 ft | 19 kts | 19° |
| 2026-05-07 19:33 | 52.70496 | -8.90843 | 22 ft | 25 kts | 18° |
| 2026-05-07 19:33 | 52.70624 | -8.90772 | 22 ft | 17 kts | 19° |
| 2026-05-07 19:34 | 52.70756 | -8.90697 | 22 ft | 23 kts | 18° |
| 2026-05-07 19:34 | 52.70881 | -8.90670 | 22 ft | 17 kts | 342° |
| 2026-05-07 19:34 | 52.70969 | -8.90793 | 21 ft | 17 kts | 290° |
| 2026-05-07 19:34 | 52.70910 | -8.90980 | 22 ft | 28 kts | 232° |
| 2026-05-07 19:35 | 52.70622 | -8.91593 | 27 ft | 106 kts | 232° |
| 2026-05-07 19:35 | 52.70030 | -8.92850 | 38 ft | 171 kts | 232° |
| 2026-05-07 19:35 | 52.69221 | -8.94582 | 423 ft | 199 kts | 233° |
| 2026-05-07 19:35 | 52.68489 | -8.96636 | 799 ft | 223 kts | 258° |
| 2026-05-07 19:36 | 52.68746 | -8.99155 | 1621 ft | 230 kts | 294° |
| 2026-05-07 19:36 | 52.69510 | -9.01456 | 2642 ft | 222 kts | 297° |
| 2026-05-07 19:36 | 52.70281 | -9.03578 | 3589 ft | 213 kts | 297° |
| 2026-05-07 19:36 | 52.71055 | -9.05742 | 4153 ft | 224 kts | 297° |
| 2026-05-07 19:37 | 52.71846 | -9.07980 | 4804 ft | 226 kts | 297° |
| 2026-05-07 19:37 | 52.72668 | -9.10198 | 4925 ft | 228 kts | 306° |
| 2026-05-07 19:37 | 52.73877 | -9.12048 | 4995 ft | 254 kts | 326° |
| 2026-05-07 19:37 | 52.75497 | -9.13438 | 5089 ft | 266 kts | 332° |
| 2026-05-07 19:38 | 52.77158 | -9.14742 | 5492 ft | 270 kts | 332° |
| 2026-05-07 19:38 | 52.78869 | -9.16081 | 5879 ft | 272 kts | 332° |
| 2026-05-07 19:38 | 52.80585 | -9.17432 | 6270 ft | 274 kts | 332° |
| 2026-05-07 19:38 | 52.82306 | -9.18797 | 6653 ft | 275 kts | 331° |
| 2026-05-07 19:39 | 52.84036 | -9.20179 | 7025 ft | 277 kts | 331° |
| 2026-05-07 19:39 | 52.85777 | -9.21576 | 7402 ft | 278 kts | 331° |
| 2026-05-07 19:39 | 52.87520 | -9.22983 | 7781 ft | 279 kts | 331° |
| 2026-05-07 19:39 | 52.89260 | -9.24391 | 8168 ft | 279 kts | 331° |
| 2026-05-07 19:40 | 52.91008 | -9.25809 | 8572 ft | 280 kts | 331° |
| 2026-05-07 19:40 | 52.92767 | -9.27241 | 8974 ft | 281 kts | 330° |
| 2026-05-07 19:40 | 52.94507 | -9.28660 | 9374 ft | 283 kts | 330° |
| 2026-05-07 19:40 | 52.96287 | -9.30113 | 9782 ft | 286 kts | 330° |
| 2026-05-07 19:41 | 52.98078 | -9.31579 | 10357 ft | 290 kts | 330° |
| 2026-05-07 19:41 | 52.99898 | -9.33070 | 10994 ft | 294 kts | 330° |
| 2026-05-07 19:41 | 53.01745 | -9.34583 | 11715 ft | 296 kts | 330° |
| 2026-05-07 19:41 | 53.03636 | -9.36138 | 12077 ft | 313 kts | 330° |
| 2026-05-07 19:42 | 53.05653 | -9.37802 | 12276 ft | 333 kts | 330° |
| 2026-05-07 19:42 | 53.07762 | -9.39541 | 12753 ft | 342 kts | 330° |
| 2026-05-07 19:42 | 53.09885 | -9.41288 | 13432 ft | 346 kts | 330° |
| 2026-05-07 19:42 | 53.12048 | -9.43068 | 14116 ft | 348 kts | 330° |
| 2026-05-07 19:43 | 53.14231 | -9.44866 | 14740 ft | 351 kts | 330° |
| 2026-05-07 19:43 | 53.16431 | -9.46681 | 15367 ft | 354 kts | 330° |
| 2026-05-07 19:43 | 53.18649 | -9.48515 | 15981 ft | 357 kts | 330° |
| 2026-05-07 19:43 | 53.20888 | -9.50368 | 16602 ft | 361 kts | 330° |
| 2026-05-07 19:44 | 53.23150 | -9.52243 | 17216 ft | 364 kts | 329° |
| 2026-05-07 19:44 | 53.25433 | -9.54139 | 17826 ft | 367 kts | 329° |
| 2026-05-07 19:44 | 53.27729 | -9.56047 | 18406 ft | 371 kts | 329° |
| 2026-05-07 19:44 | 53.30054 | -9.57982 | 18931 ft | 374 kts | 329° |
| 2026-05-07 19:45 | 53.32358 | -9.59902 | 19436 ft | 377 kts | 329° |
| 2026-05-07 19:45 | 53.34714 | -9.61867 | 19943 ft | 380 kts | 329° |
| 2026-05-07 19:45 | 53.37092 | -9.63852 | 20464 ft | 384 kts | 329° |
| 2026-05-07 19:45 | 53.39494 | -9.65861 | 20952 ft | 387 kts | 329° |
| 2026-05-07 19:46 | 53.41908 | -9.67883 | 21446 ft | 390 kts | 329° |
| 2026-05-07 19:46 | 53.44355 | -9.69934 | 21942 ft | 393 kts | 329° |
| 2026-05-07 19:46 | 53.46814 | -9.71999 | 22418 ft | 397 kts | 329° |
| 2026-05-07 19:46 | 53.49298 | -9.74087 | 22888 ft | 400 kts | 329° |
| 2026-05-07 19:47 | 53.51797 | -9.76190 | 23359 ft | 403 kts | 329° |
| 2026-05-07 19:47 | 53.54280 | -9.78283 | 23755 ft | 407 kts | 329° |
| 2026-05-07 19:47 | 53.56820 | -9.80426 | 24152 ft | 409 kts | 329° |
| 2026-05-07 19:47 | 53.59366 | -9.82576 | 24582 ft | 411 kts | 329° |
| 2026-05-07 19:48 | 53.61929 | -9.84745 | 24957 ft | 414 kts | 329° |
| 2026-05-07 19:48 | 53.64514 | -9.86935 | 25313 ft | 417 kts | 329° |
| 2026-05-07 19:48 | 53.67107 | -9.89137 | 25701 ft | 419 kts | 328° |
| 2026-05-07 19:48 | 53.69719 | -9.91356 | 26084 ft | 421 kts | 328° |
| 2026-05-07 19:49 | 53.72344 | -9.93589 | 26474 ft | 423 kts | 328° |
| 2026-05-07 19:49 | 53.74975 | -9.95829 | 26984 ft | 421 kts | 328° |
| 2026-05-07 19:49 | 53.77579 | -9.98048 | 27533 ft | 418 kts | 328° |
| 2026-05-07 19:49 | 53.80180 | -10.00268 | 28014 ft | 418 kts | 328° |
| 2026-05-07 19:50 | 53.82779 | -10.02491 | 28485 ft | 418 kts | 328° |
| 2026-05-07 19:50 | 53.85371 | -10.04713 | 28931 ft | 417 kts | 327° |
| 2026-05-07 19:50 | 53.87961 | -10.06935 | 29377 ft | 417 kts | 327° |
| 2026-05-07 19:50 | 53.90548 | -10.09158 | 29817 ft | 416 kts | 327° |
| 2026-05-07 19:51 | 53.93130 | -10.11380 | 30206 ft | 416 kts | 327° |
| 2026-05-07 19:51 | 53.95709 | -10.13602 | 30561 ft | 415 kts | 327° |
| 2026-05-07 19:51 | 53.98283 | -10.15823 | 30914 ft | 415 kts | 327° |
| 2026-05-07 19:51 | 54.00850 | -10.18042 | 31253 ft | 414 kts | 327° |
| 2026-05-07 19:52 | 54.03416 | -10.20262 | 31565 ft | 414 kts | 327° |
| 2026-05-07 19:52 | 54.05979 | -10.22484 | 31873 ft | 414 kts | 327° |
| 2026-05-07 19:52 | 54.08546 | -10.24711 | 32225 ft | 413 kts | 327° |
| 2026-05-07 19:52 | 54.11078 | -10.26911 | 32512 ft | 414 kts | 327° |
| 2026-05-07 19:53 | 54.13640 | -10.29140 | 32823 ft | 413 kts | 327° |
| 2026-05-07 19:53 | 54.16229 | -10.31396 | 33153 ft | 412 kts | 327° |
| 2026-05-07 19:53 | 54.18749 | -10.33595 | 33452 ft | 412 kts | 327° |
| 2026-05-07 19:53 | 54.21296 | -10.35820 | 33719 ft | 412 kts | 327° |
| 2026-05-07 19:54 | 54.23848 | -10.38054 | 33968 ft | 412 kts | 327° |
| 2026-05-07 19:54 | 54.26419 | -10.40310 | 33945 ft | 418 kts | 327° |